Time;durP1;ratioP1;P1;durP2;ratioP2;P2;SDS_P1;SDS_P2;PMS_P1;PMS_P2;Temp;Humidity;BMP_temperature;BMP_pressure;BME280_temperature;BME280_humidity;BME280_pressure;Samples;Min_cycle;Max_cycle;Signal;HPM_P1;HPM_P2
2023/02/17 00:01:59;;;;;;;17.73;11.00;;;8.20;99.90;;;;;;4971887;28;20027;-65
2023/02/17 00:04:28;;;;;;;19.30;10.30;;;8.20;99.90;;;;;;4973493;28;20023;-66
2023/02/17 00:06:53;;;;;;;25.10;11.55;;;8.30;99.90;;;;;;4968509;28;20056;-65
2023/02/17 00:09:19;;;;;;;17.13;10.48;;;8.30;99.90;;;;;;4967641;28;20564;-65
2023/02/17 00:11:45;;;;;;;20.05;10.23;;;8.40;99.90;;;;;;4957717;28;20045;-65
2023/02/17 00:14:12;;;;;;;20.38;10.32;;;8.40;99.90;;;;;;4968844;28;20039;-65
2023/02/17 00:16:38;;;;;;;21.80;11.18;;;8.40;99.90;;;;;;4967704;28;20027;-65
2023/02/17 00:19:22;;;;;;;20.77;11.20;;;8.50;99.90;;;;;;4952332;28;20458;-65
2023/02/17 00:21:55;;;;;;;18.50;10.70;;;8.50;99.90;;;;;;4966342;28;20023;-65
2023/02/17 00:24:22;;;;;;;19.00;10.38;;;8.50;99.90;;;;;;4976182;28;20031;-65
2023/02/17 00:26:48;;;;;;;16.00;9.88;;;8.60;99.90;;;;;;4963219;28;20037;-65
2023/02/17 00:29:14;;;;;;;15.05;9.50;;;8.60;99.90;;;;;;4970413;28;20027;-66
2023/02/17 00:31:40;;;;;;;18.52;9.75;;;8.70;99.90;;;;;;4963882;28;20410;-65
2023/02/17 00:34:05;;;;;;;18.60;9.25;;;8.70;99.90;;;;;;4965602;28;20610;-65
2023/02/17 00:36:31;;;;;;;16.60;8.48;;;8.60;99.90;;;;;;4961723;28;20046;-65
2023/02/17 00:38:57;;;;;;;17.13;10.18;;;8.70;99.90;;;;;;4963659;28;20031;-65
2023/02/17 00:41:24;;;;;;;19.00;9.75;;;8.70;99.90;;;;;;4969847;28;20033;-65
2023/02/17 00:43:50;;;;;;;17.85;10.00;;;8.70;99.90;;;;;;4964434;28;20031;-65
2023/02/17 00:46:17;;;;;;;17.25;10.68;;;8.70;99.90;;;;;;4959542;28;20587;-66
2023/02/17 00:48:42;;;;;;;15.88;9.13;;;8.80;99.90;;;;;;4974130;28;20478;-65
2023/02/17 00:51:09;;;;;;;19.75;9.85;;;8.80;99.90;;;;;;4966336;28;20038;-64
2023/02/17 00:53:35;;;;;;;15.60;8.52;;;8.80;99.90;;;;;;4989064;28;20100;-65
2023/02/17 00:56:01;;;;;;;17.88;9.57;;;8.80;99.90;;;;;;4984600;28;20038;-65
2023/02/17 00:58:26;;;;;;;16.45;9.15;;;8.80;99.90;;;;;;4969597;28;20039;-65
2023/02/17 01:00:54;;;;;;;14.27;8.18;;;8.80;99.90;;;;;;4963620;28;20034;-65
2023/02/17 01:03:20;;;;;;;13.35;8.95;;;8.80;99.90;;;;;;4967572;28;20026;-66
2023/02/17 01:05:47;;;;;;;15.98;9.80;;;8.80;99.90;;;;;;4971503;28;20029;-64
2023/02/17 01:08:15;;;;;;;16.95;8.50;;;8.90;99.90;;;;;;4967589;28;20554;-66
2023/02/17 01:10:43;;;;;;;17.80;9.15;;;8.80;99.90;;;;;;4948184;28;20030;-65
2023/02/17 01:13:09;;;;;;;12.40;8.13;;;8.90;99.90;;;;;;4966369;28;20030;-66
2023/02/17 01:15:40;;;;;;;14.20;9.07;;;8.90;99.90;;;;;;4989646;28;20028;-67
2023/02/17 01:18:05;;;;;;;14.82;8.27;;;8.90;99.90;;;;;;4962444;28;20031;-65
2023/02/17 01:20:35;;;;;;;13.48;8.30;;;8.90;99.90;;;;;;4948806;28;20046;-66
2023/02/17 01:23:00;;;;;;;15.52;8.85;;;8.90;99.90;;;;;;4977025;28;20642;-65
2023/02/17 01:25:26;;;;;;;13.07;8.38;;;8.90;99.90;;;;;;4970556;28;20055;-66
2023/02/17 01:27:53;;;;;;;14.50;8.77;;;9.00;99.90;;;;;;4961265;28;20097;-65
2023/02/17 01:30:18;;;;;;;14.52;8.70;;;9.00;99.90;;;;;;4968551;28;20050;-65
2023/02/17 01:32:44;;;;;;;15.95;8.65;;;9.00;99.90;;;;;;4961668;28;20058;-66
2023/02/17 01:35:09;;;;;;;14.30;8.00;;;9.00;99.90;;;;;;4968120;28;20575;-67
2023/02/17 01:37:35;;;;;;;19.08;9.25;;;9.00;99.90;;;;;;4971837;28;20019;-66
2023/02/17 01:40:01;;;;;;;13.43;7.80;;;9.00;99.90;;;;;;4971603;28;20351;-66
2023/02/17 01:42:26;;;;;;;14.52;9.30;;;9.10;99.90;;;;;;4983857;28;20026;-65
2023/02/17 01:45:47;;;;;;;17.17;8.65;;;9.10;99.90;;;;;;4962325;28;20057;-67
2023/02/17 01:48:16;;;;;;;12.88;7.43;;;9.10;99.90;;;;;;4973693;28;20482;-65
2023/02/17 01:50:58;;;;;;;14.52;8.25;;;9.10;99.90;;;;;;4974462;28;20023;-66
2023/02/17 01:53:34;;;;;;;14.75;7.97;;;9.10;99.90;;;;;;4974190;28;20506;-66
2023/02/17 01:56:00;;;;;;;12.63;8.15;;;9.10;99.90;;;;;;4975444;28;20062;-66
2023/02/17 01:58:27;;;;;;;13.48;8.60;;;9.10;99.90;;;;;;4973656;28;20050;-65
2023/02/17 02:00:57;;;;;;;13.15;7.78;;;9.10;99.90;;;;;;4978652;28;20037;-65
2023/02/17 02:03:23;;;;;;;13.57;8.00;;;9.20;99.90;;;;;;4974526;28;20037;-66
2023/02/17 02:05:49;;;;;;;16.52;7.13;;;9.10;99.90;;;;;;4978232;28;20506;-65
2023/02/17 02:08:15;;;;;;;14.13;7.93;;;9.10;99.90;;;;;;4973456;28;20106;-66
2023/02/17 02:10:41;;;;;;;14.07;6.68;;;9.20;99.90;;;;;;4970391;28;20130;-65
2023/02/17 02:13:07;;;;;;;14.80;7.72;;;9.20;99.90;;;;;;4975159;28;20038;-66
2023/02/17 02:15:53;;;;;;;16.00;7.18;;;9.10;99.90;;;;;;4981253;28;20026;-65
2023/02/17 02:18:19;;;;;;;12.25;6.72;;;9.20;99.90;;;;;;4968980;28;20023;-65
2023/02/17 02:21:08;;;;;;;11.93;6.22;;;9.20;99.90;;;;;;4945932;28;20094;-65
2023/02/17 02:23:54;;;;;;;11.73;7.05;;;9.20;99.90;;;;;;4958657;28;20026;-65
2023/02/17 02:26:41;;;;;;;8.75;5.78;;;9.20;99.90;;;;;;4967032;28;20655;-65
2023/02/17 02:29:43;;;;;;;13.25;7.55;;;9.20;99.90;;;;;;4969782;28;20514;-65
2023/02/17 02:32:31;;;;;;;9.80;6.18;;;9.30;99.90;;;;;;4971121;28;20035;-65
2023/02/17 02:35:08;;;;;;;9.60;5.50;;;9.30;99.90;;;;;;4963347;28;20056;-65
2023/02/17 02:37:41;;;;;;;13.15;5.85;;;9.30;99.90;;;;;;4963863;28;20054;-64
2023/02/17 02:40:09;;;;;;;8.97;5.67;;;9.30;99.90;;;;;;4985998;28;20066;-65
2023/02/17 02:42:35;;;;;;;9.27;6.20;;;9.40;99.90;;;;;;4970215;28;20011;-65
2023/02/17 02:45:05;;;;;;;8.98;5.50;;;9.40;99.90;;;;;;4964805;28;20375;-65
2023/02/17 02:47:39;;;;;;;9.10;5.93;;;9.40;99.90;;;;;;4958816;28;20030;-65
2023/02/17 02:50:06;;;;;;;8.38;5.10;;;9.30;99.90;;;;;;4971774;28;20027;-65
2023/02/17 02:53:16;;;;;;;9.43;4.85;;;9.40;99.90;;;;;;4972008;28;20027;-65
2023/02/17 02:56:07;;;;;;;9.32;5.80;;;9.40;99.90;;;;;;4968898;28;20035;-65
2023/02/17 02:58:32;;;;;;;9.30;5.35;;;9.40;99.90;;;;;;4968945;28;20062;-65
2023/02/17 03:01:12;;;;;;;8.32;5.60;;;9.40;99.90;;;;;;4972768;28;20549;-65
2023/02/17 03:03:51;;;;;;;10.70;5.40;;;9.40;99.90;;;;;;4972303;28;20487;-65
2023/02/17 03:06:32;;;;;;;9.10;5.40;;;9.40;99.90;;;;;;4973289;28;20057;-65
2023/02/17 03:09:05;;;;;;;8.90;6.15;;;9.40;99.90;;;;;;4972044;28;20026;-65
2023/02/17 03:11:31;;;;;;;7.63;5.28;;;9.40;99.90;;;;;;4961417;28;20890;-65
2023/02/17 03:14:11;;;;;;;13.48;5.85;;;9.40;99.90;;;;;;4971632;28;20101;-66
2023/02/17 03:16:39;;;;;;;10.80;5.63;;;9.30;99.90;;;;;;4971246;28;20033;-65
2023/02/17 03:19:05;;;;;;;8.93;5.22;;;9.30;99.90;;;;;;4971859;28;20034;-66
2023/02/17 03:22:00;;;;;;;8.90;5.07;;;9.30;99.90;;;;;;4940515;28;20042;-65
2023/02/17 03:24:26;;;;;;;7.97;5.03;;;9.30;99.90;;;;;;4960851;28;20118;-65
2023/02/17 03:26:51;;;;;;;9.13;5.00;;;9.30;99.90;;;;;;4960501;28;20031;-65
2023/02/17 03:29:17;;;;;;;8.73;5.57;;;9.30;99.90;;;;;;4959384;28;20735;-66
2023/02/17 03:31:42;;;;;;;8.90;5.38;;;9.30;99.90;;;;;;4958111;28;20096;-66
2023/02/17 03:34:08;;;;;;;7.90;4.72;;;9.40;99.90;;;;;;4965906;28;20097;-66
2023/02/17 03:36:34;;;;;;;7.13;4.85;;;9.40;99.90;;;;;;4966961;28;20027;-66
2023/02/17 03:38:59;;;;;;;7.93;4.80;;;9.30;99.90;;;;;;4968304;28;20074;-66
2023/02/17 03:41:25;;;;;;;15.13;5.30;;;9.40;99.90;;;;;;4967349;28;20054;-65
2023/02/17 03:43:50;;;;;;;7.57;5.32;;;9.40;99.90;;;;;;4967859;28;20039;-66
2023/02/17 03:46:17;;;;;;;9.02;5.50;;;9.50;99.90;;;;;;4968001;28;20058;-66
2023/02/17 03:48:43;;;;;;;8.60;4.88;;;9.50;99.90;;;;;;4969514;28;20090;-65
2023/02/17 03:51:18;;;;;;;9.27;5.10;;;9.50;99.90;;;;;;4968304;28;20324;-66
2023/02/17 03:53:45;;;;;;;8.05;4.80;;;9.50;99.90;;;;;;4970536;28;20042;-65
2023/02/17 03:56:11;;;;;;;7.90;4.35;;;9.60;99.90;;;;;;4970393;28;20450;-66
2023/02/17 03:58:37;;;;;;;10.80;5.45;;;9.60;99.90;;;;;;4969200;28;20101;-66
2023/02/17 04:01:04;;;;;;;7.47;4.95;;;9.60;99.90;;;;;;4967038;28;20030;-66
2023/02/17 04:03:30;;;;;;;6.68;4.32;;;9.60;99.90;;;;;;4962440;28;20038;-66
2023/02/17 04:05:56;;;;;;;8.52;5.07;;;9.60;99.90;;;;;;4970626;28;20027;-66
2023/02/17 04:08:22;;;;;;;8.38;4.88;;;9.60;99.90;;;;;;4963208;28;20603;-67
2023/02/17 04:10:57;;;;;;;6.80;4.72;;;9.50;99.90;;;;;;4964797;28;20709;-64
2023/02/17 04:13:23;;;;;;;6.35;4.15;;;9.50;99.90;;;;;;4968182;28;20031;-65
2023/02/17 04:15:49;;;;;;;7.53;5.00;;;9.50;99.90;;;;;;4972366;28;20105;-66
2023/02/17 04:18:15;;;;;;;7.32;4.70;;;9.50;99.90;;;;;;4970343;28;20110;-65
2023/02/17 04:20:42;;;;;;;8.95;5.25;;;9.50;99.90;;;;;;4949101;28;20137;-67
2023/02/17 04:23:07;;;;;;;7.82;4.68;;;9.60;99.90;;;;;;4968102;28;20050;-66
2023/02/17 04:25:37;;;;;;;8.70;5.05;;;9.60;99.90;;;;;;4968247;28;20478;-65
2023/02/17 04:28:04;;;;;;;7.88;4.43;;;9.60;99.90;;;;;;4970370;28;20101;-65
2023/02/17 04:30:29;;;;;;;10.43;5.15;;;9.50;99.90;;;;;;4968329;28;20046;-66
2023/02/17 04:32:55;;;;;;;8.95;5.00;;;9.60;99.90;;;;;;4971528;28;20086;-66
2023/02/17 04:35:21;;;;;;;7.72;5.00;;;9.60;99.90;;;;;;4970547;28;20037;-64
2023/02/17 04:37:46;;;;;;;8.05;4.55;;;9.60;99.90;;;;;;4981950;28;20031;-65
2023/02/17 04:40:12;;;;;;;6.95;4.35;;;9.60;99.90;;;;;;4967340;28;20025;-65
2023/02/17 04:42:38;;;;;;;5.90;4.32;;;9.60;99.90;;;;;;4969658;28;20027;-65
2023/02/17 04:45:06;;;;;;;6.75;4.82;;;9.60;99.90;;;;;;4974406;28;20049;-66
2023/02/17 04:47:31;;;;;;;6.40;4.13;;;9.60;99.90;;;;;;4958097;28;20034;-66
2023/02/17 04:49:57;;;;;;;5.28;3.95;;;9.60;99.90;;;;;;4970380;28;20030;-65
2023/02/17 04:52:23;;;;;;;5.93;4.15;;;9.50;99.90;;;;;;4964010;28;20030;-66
2023/02/17 04:54:48;;;;;;;5.25;4.03;;;9.50;99.90;;;;;;4970755;28;20077;-65
2023/02/17 04:57:14;;;;;;;10.05;4.15;;;9.50;99.90;;;;;;4973199;28;20517;-65
2023/02/17 04:59:39;;;;;;;11.05;4.93;;;9.50;99.90;;;;;;4980031;28;20386;-66
2023/02/17 05:02:05;;;;;;;7.82;4.68;;;9.60;99.90;;;;;;4971246;28;20030;-67
2023/02/17 05:04:31;;;;;;;8.93;4.95;;;9.60;99.90;;;;;;4966654;28;20031;-66
2023/02/17 05:06:56;;;;;;;5.88;3.97;;;9.60;99.90;;;;;;4970231;28;20031;-66
2023/02/17 05:09:22;;;;;;;6.65;4.22;;;9.60;99.90;;;;;;4969690;28;20490;-66
2023/02/17 05:11:47;;;;;;;6.70;4.65;;;9.60;99.90;;;;;;4967532;28;20050;-65
2023/02/17 05:14:13;;;;;;;6.35;4.50;;;9.60;99.90;;;;;;5039923;22;20083;-64
2023/02/17 05:16:39;;;;;;;8.30;5.05;;;9.60;99.90;;;;;;5010934;28;20037;-64
2023/02/17 05:19:04;;;;;;;6.25;4.30;;;9.60;99.90;;;;;;5014046;28;20053;-65
2023/02/17 05:21:30;;;;;;;8.85;4.45;;;9.60;99.90;;;;;;4985366;28;20022;-65
2023/02/17 05:23:56;;;;;;;7.15;4.85;;;9.60;99.90;;;;;;5007089;28;20053;-65
2023/02/17 05:26:21;;;;;;;5.60;3.85;;;9.60;99.90;;;;;;5005227;28;20105;-67
2023/02/17 05:28:47;;;;;;;6.13;4.10;;;9.60;99.90;;;;;;5000814;28;20041;-65
2023/02/17 05:31:12;;;;;;;6.72;4.30;;;9.50;99.90;;;;;;5003917;28;20029;-65
2023/02/17 05:33:38;;;;;;;8.75;4.32;;;9.60;99.90;;;;;;5008034;28;20037;-65
2023/02/17 05:36:07;;;;;;;9.77;5.28;;;9.50;99.90;;;;;;5015855;28;20029;-65
2023/02/17 05:38:32;;;;;;;6.25;4.10;;;9.50;99.90;;;;;;4981120;28;20033;-65
2023/02/17 05:40:58;;;;;;;7.05;4.63;;;9.50;99.90;;;;;;5009194;28;20026;-65
2023/02/17 05:43:24;;;;;;;7.03;3.97;;;9.50;99.90;;;;;;5009793;28;20497;-66
2023/02/17 05:45:49;;;;;;;8.80;4.78;;;9.50;99.90;;;;;;5014985;28;20112;-66
2023/02/17 05:48:15;;;;;;;9.35;4.20;;;9.50;99.90;;;;;;5018009;28;20030;-65
2023/02/17 05:50:41;;;;;;;10.35;5.30;;;9.60;99.90;;;;;;5013047;28;20444;-66
2023/02/17 05:53:06;;;;;;;8.32;4.35;;;9.60;99.90;;;;;;5006519;28;20025;-65
2023/02/17 05:55:32;;;;;;;8.98;4.80;;;9.60;99.90;;;;;;5007755;28;20041;-66
2023/02/17 05:57:57;;;;;;;9.93;5.40;;;9.60;99.90;;;;;;5021013;28;20496;-65
2023/02/17 06:00:23;;;;;;;7.38;4.05;;;9.60;99.90;;;;;;5007834;28;20068;-64
2023/02/17 06:02:49;;;;;;;12.20;6.00;;;9.60;99.90;;;;;;5018191;28;20444;-66
2023/02/17 06:05:15;;;;;;;7.22;4.60;;;9.60;99.90;;;;;;5018760;28;20029;-65
2023/02/17 06:07:40;;;;;;;7.40;4.47;;;9.50;99.90;;;;;;5015423;28;20037;-66
2023/02/17 06:10:07;;;;;;;5.72;3.88;;;9.50;99.90;;;;;;5009483;28;20075;-65
2023/02/17 06:12:33;;;;;;;8.18;4.38;;;9.50;99.90;;;;;;5009930;28;20117;-65
2023/02/17 06:14:59;;;;;;;7.28;4.35;;;9.50;99.90;;;;;;5015765;28;20180;-65
2023/02/17 06:17:24;;;;;;;5.93;3.63;;;9.50;99.90;;;;;;5011368;28;20513;-66
2023/02/17 06:19:50;;;;;;;10.10;4.72;;;9.50;99.90;;;;;;5013548;28;20032;-65
2023/02/17 06:22:16;;;;;;;6.28;3.78;;;9.50;99.90;;;;;;4989824;28;20022;-65
2023/02/17 06:24:41;;;;;;;6.07;3.90;;;9.50;99.90;;;;;;5012033;28;20038;-65
2023/02/17 06:27:07;;;;;;;8.20;4.40;;;9.50;99.90;;;;;;5010963;28;20053;-66
2023/02/17 06:29:32;;;;;;;6.57;4.60;;;9.50;99.90;;;;;;5019032;28;20037;-65
2023/02/17 06:31:58;;;;;;;6.03;4.53;;;9.50;99.90;;;;;;5010483;28;20046;-66
2023/02/17 06:34:24;;;;;;;6.13;4.05;;;9.50;99.90;;;;;;5016287;28;20025;-65
2023/02/17 06:36:49;;;;;;;8.77;4.63;;;9.60;99.90;;;;;;5008278;28;20053;-65
2023/02/17 06:39:15;;;;;;;8.27;4.47;;;9.60;99.90;;;;;;5009424;28;20018;-65
2023/02/17 06:41:41;;;;;;;6.53;4.07;;;9.50;99.90;;;;;;5010454;28;20037;-65
2023/02/17 06:44:07;;;;;;;7.68;4.68;;;9.50;99.90;;;;;;4999010;28;20032;-65
2023/02/17 06:46:33;;;;;;;10.02;4.47;;;9.60;99.90;;;;;;5012182;28;20025;-65
2023/02/17 06:49:00;;;;;;;6.30;3.80;;;9.60;99.90;;;;;;5008856;28;20028;-65
2023/02/17 06:51:26;;;;;;;8.95;3.85;;;9.60;99.90;;;;;;5014398;28;20022;-65
2023/02/17 06:53:52;;;;;;;10.43;4.13;;;9.60;99.90;;;;;;5004825;28;20039;-66
2023/02/17 06:56:17;;;;;;;7.78;4.30;;;9.60;99.90;;;;;;5017766;28;20029;-65
2023/02/17 06:58:43;;;;;;;7.07;3.97;;;9.60;99.90;;;;;;5009837;28;20038;-65
2023/02/17 07:01:22;;;;;;;5.22;3.80;;;9.60;99.90;;;;;;5018721;28;20024;-65
2023/02/17 07:03:48;;;;;;;6.30;4.05;;;9.60;99.90;;;;;;5024795;28;20033;-65
2023/02/17 07:06:13;;;;;;;8.27;4.32;;;9.70;99.90;;;;;;5009728;28;20467;-66
2023/02/17 07:08:39;;;;;;;5.88;4.38;;;9.70;99.90;;;;;;5007572;28;20393;-66
2023/02/17 07:11:06;;;;;;;6.43;3.92;;;9.70;99.90;;;;;;5009250;28;20054;-65
2023/02/17 07:13:32;;;;;;;5.13;3.72;;;9.80;99.90;;;;;;5021064;28;20029;-66
2023/02/17 07:15:58;;;;;;;8.05;3.83;;;9.70;99.90;;;;;;5014273;28;20029;-67
2023/02/17 07:18:23;;;;;;;8.07;4.70;;;9.70;99.90;;;;;;5020750;28;20152;-66
2023/02/17 07:20:49;;;;;;;8.57;4.65;;;9.80;99.90;;;;;;5013238;28;20096;-66
2023/02/17 07:23:15;;;;;;;8.43;3.45;;;9.80;99.90;;;;;;4985794;28;20042;-66
2023/02/17 07:25:40;;;;;;;6.32;4.22;;;9.80;99.90;;;;;;5007611;28;20042;-66
2023/02/17 07:28:06;;;;;;;8.05;4.10;;;9.80;99.90;;;;;;5010134;28;20970;-66
2023/02/17 07:30:35;;;;;;;6.63;3.75;;;9.80;99.90;;;;;;4991708;28;20025;-66
2023/02/17 07:33:01;;;;;;;7.65;3.60;;;9.80;99.90;;;;;;5009567;28;20036;-66
2023/02/17 07:35:26;;;;;;;5.38;4.15;;;9.80;99.90;;;;;;5008390;28;20033;-66
2023/02/17 07:37:52;;;;;;;6.65;4.30;;;9.80;99.90;;;;;;5010450;28;20076;-66
2023/02/17 07:40:18;;;;;;;6.40;3.88;;;9.80;99.90;;;;;;4980605;28;20022;-66
2023/02/17 07:42:43;;;;;;;7.10;3.78;;;9.90;99.90;;;;;;5014389;28;20464;-66
2023/02/17 07:45:09;;;;;;;6.97;4.45;;;9.90;99.90;;;;;;5011107;28;20021;-66
2023/02/17 07:47:34;;;;;;;5.78;4.28;;;9.80;99.90;;;;;;5015782;28;20064;-66
2023/02/17 07:50:00;;;;;;;8.77;4.22;;;9.90;99.90;;;;;;5017193;28;20402;-66
2023/02/17 07:52:25;;;;;;;6.70;4.63;;;9.90;99.90;;;;;;5007840;28;20460;-66
2023/02/17 07:54:51;;;;;;;7.35;3.72;;;9.90;99.90;;;;;;5004307;28;20033;-65
2023/02/17 07:57:16;;;;;;;18.63;7.88;;;9.90;99.90;;;;;;4984021;28;20080;-67
2023/02/17 07:59:42;;;;;;;36.35;17.80;;;9.90;99.90;;;;;;5006491;28;20029;-66
2023/02/17 08:02:10;;;;;;;21.90;10.80;;;9.90;99.90;;;;;;5003927;28;20088;-66
2023/02/17 08:04:36;;;;;;;34.50;17.15;;;10.00;99.90;;;;;;5009481;28;20026;-67
2023/02/17 08:07:01;;;;;;;54.88;32.15;;;10.00;99.90;;;;;;5015836;28;20456;-67
2023/02/17 08:15:00;;;;;;;15.35;9.73;;;10.10;99.90;;;;;;5005150;28;19980;-66
2023/02/17 08:17:27;;;;;;;8.73;5.53;;;10.20;99.90;;;;;;5009832;28;20084;-66
2023/02/17 08:19:54;;;;;;;8.73;5.15;;;10.20;99.90;;;;;;5009840;28;20095;-66
2023/02/17 08:22:19;;;;;;;7.53;5.43;;;10.30;99.90;;;;;;5004361;28;20491;-66
2023/02/17 08:24:45;;;;;;;6.60;4.50;;;10.30;99.90;;;;;;4970233;28;20128;-67
2023/02/17 08:27:13;;;;;;;13.20;5.13;;;10.40;99.90;;;;;;5016840;28;20452;-67
2023/02/17 08:29:38;;;;;;;6.95;4.30;;;10.40;99.90;;;;;;5007748;28;20481;-66
2023/02/17 08:32:04;;;;;;;5.80;3.83;;;10.40;99.90;;;;;;5018147;28;20032;-66
2023/02/17 08:34:33;;;;;;;6.60;4.32;;;10.40;99.90;;;;;;5005453;28;20032;-67
2023/02/17 08:37:00;;;;;;;6.68;5.03;;;10.40;99.90;;;;;;5006336;28;20036;-66
2023/02/17 08:39:26;;;;;;;6.72;4.70;;;10.40;99.90;;;;;;5012971;28;20018;-66
2023/02/17 08:41:51;;;;;;;6.75;4.10;;;10.50;99.90;;;;;;5010128;28;20045;-66
2023/02/17 08:44:19;;;;;;;7.43;3.97;;;10.50;99.90;;;;;;4978491;28;20069;-66
2023/02/17 08:46:47;;;;;;;9.57;5.03;;;10.50;99.90;;;;;;5007024;28;20585;-66
2023/02/17 08:49:14;;;;;;;7.10;4.68;;;10.50;99.90;;;;;;5008360;28;20023;-67
2023/02/17 08:51:40;;;;;;;9.98;6.43;;;10.60;99.90;;;;;;5009031;28;20508;-66
2023/02/17 08:54:09;;;;;;;14.00;8.00;;;10.60;99.90;;;;;;5022709;28;20053;-66
2023/02/17 08:56:36;;;;;;;8.52;5.47;;;10.70;99.90;;;;;;4990163;28;20030;-66
2023/02/17 08:59:02;;;;;;;5.88;4.30;;;10.80;99.90;;;;;;5004460;28;20025;-67
2023/02/17 09:01:28;;;;;;;7.55;4.85;;;10.90;99.90;;;;;;5007719;28;20493;-66
2023/02/17 09:03:56;;;;;;;7.57;4.60;;;11.00;99.90;;;;;;5010158;28;20032;-66
2023/02/17 09:06:22;;;;;;;6.05;3.63;;;11.10;99.90;;;;;;5002604;28;20041;-66
2023/02/17 09:08:48;;;;;;;5.00;3.30;;;11.20;99.90;;;;;;5011684;28;20057;-67
2023/02/17 09:11:16;;;;;;;8.80;5.65;;;11.40;99.90;;;;;;5015239;28;20025;-67
2023/02/17 09:13:42;;;;;;;11.27;6.93;;;11.50;99.90;;;;;;5012479;28;20024;-66
2023/02/17 09:16:08;;;;;;;9.50;4.97;;;11.60;99.90;;;;;;5006693;28;20092;-66
2023/02/17 09:18:33;;;;;;;11.27;6.90;;;11.80;99.90;;;;;;5009040;28;20034;-67
2023/02/17 09:21:07;;;;;;;9.70;6.68;;;11.80;99.90;;;;;;5020377;28;20018;-66
2023/02/17 09:23:33;;;;;;;7.35;4.70;;;12.00;99.90;;;;;;5008480;28;20033;-67
2023/02/17 09:26:11;;;;;;;10.52;6.95;;;12.10;99.90;;;;;;4987118;28;20038;-66
2023/02/17 09:28:37;;;;;;;9.40;5.80;;;12.30;99.90;;;;;;5006017;28;20064;-67
2023/02/17 09:31:19;;;;;;;14.50;10.07;;;12.40;99.90;;;;;;5012241;28;20037;-67
2023/02/17 09:33:46;;;;;;;8.40;4.88;;;12.70;99.90;;;;;;5009084;28;20068;-66
2023/02/17 09:36:14;;;;;;;8.65;5.13;;;12.80;99.90;;;;;;5005961;28;20113;-67
2023/02/17 09:38:40;;;;;;;6.75;4.65;;;13.00;99.90;;;;;;4988086;28;20033;-67
2023/02/17 09:41:18;;;;;;;11.30;7.53;;;13.10;99.90;;;;;;5005028;28;20018;-67
2023/02/17 09:43:44;;;;;;;6.93;4.15;;;13.30;99.90;;;;;;5018750;28;20033;-67
2023/02/17 09:46:25;;;;;;;8.05;4.45;;;13.50;99.90;;;;;;5003736;28;20552;-67
2023/02/17 09:48:55;;;;;;;8.80;4.45;;;13.70;99.90;;;;;;5008794;28;20046;-67
2023/02/17 09:51:34;;;;;;;6.60;4.35;;;13.80;99.90;;;;;;5005167;28;20046;-67
2023/02/17 09:54:09;;;;;;;10.57;6.28;;;14.00;99.90;;;;;;5003930;28;20121;-67
2023/02/17 09:56:38;;;;;;;7.25;3.67;;;14.00;99.90;;;;;;5007238;28;20034;-66
2023/02/17 09:59:33;;;;;;;8.30;4.63;;;14.10;99.90;;;;;;5006605;28;20049;-67
2023/02/17 10:02:00;;;;;;;5.13;3.00;;;14.20;99.90;;;;;;5004540;28;20053;-67
2023/02/17 10:04:32;;;;;;;3.63;2.17;;;14.20;99.90;;;;;;5014607;28;20025;-67
2023/02/17 10:07:18;;;;;;;7.05;2.75;;;14.20;99.90;;;;;;5006349;28;20044;-67
2023/02/17 10:09:57;;;;;;;7.03;2.80;;;14.30;99.90;;;;;;5012043;28;20048;-67
2023/02/17 10:12:29;;;;;;;5.88;3.00;;;14.30;99.90;;;;;;5010793;28;20026;-67
2023/02/17 10:15:04;;;;;;;2.88;2.05;;;14.30;99.90;;;;;;5005922;28;20038;-67
2023/02/17 10:17:54;;;;;;;9.15;3.95;;;14.30;99.90;;;;;;5003753;28;20026;-67
2023/02/17 10:20:59;;;;;;;3.75;2.15;;;14.50;99.90;;;;;;5008338;28;20026;-67
2023/02/17 10:23:26;;;;;;;15.77;7.75;;;14.70;99.90;;;;;;5002374;28;20049;-66
2023/02/17 10:25:58;;;;;;;25.00;11.27;;;15.00;99.90;;;;;;4984856;28;20121;-67
2023/02/17 10:28:37;;;;;;;10.35;3.53;;;15.10;99.90;;;;;;5001909;28;20030;-67
2023/02/17 10:31:09;;;;;;;6.70;1.83;;;15.30;99.90;;;;;;5011844;28;20593;-67
2023/02/17 10:33:37;;;;;;;4.43;2.30;;;15.50;99.90;;;;;;5012029;28;20377;-67
2023/02/17 10:36:29;;;;;;;4.30;2.60;;;15.60;99.90;;;;;;5008303;28;20041;-67
2023/02/17 10:39:10;;;;;;;5.25;3.28;;;15.80;99.90;;;;;;5005511;28;20065;-68
2023/02/17 10:41:39;;;;;;;5.72;3.22;;;15.60;99.90;;;;;;5014716;28;20018;-68
2023/02/17 10:44:11;;;;;;;2.95;1.77;;;15.60;99.90;;;;;;5008867;28;20018;-67
2023/02/17 10:46:41;;;;;;;5.00;2.43;;;15.40;99.90;;;;;;5009387;28;20113;-67
2023/02/17 10:49:31;;;;;;;28.60;12.27;;;15.60;99.90;;;;;;5005077;28;20034;-67
2023/02/17 10:52:13;;;;;;;5.45;3.05;;;15.80;99.90;;;;;;4993182;28;20045;-67
2023/02/17 10:54:45;;;;;;;2.20;1.17;;;16.00;99.90;;;;;;5021444;28;20029;-67
2023/02/17 10:57:13;;;;;;;1.92;1.40;;;16.00;99.90;;;;;;5006085;28;20022;-67
2023/02/17 10:59:49;;;;;;;5.65;2.65;;;16.20;99.90;;;;;;5007088;28;20034;-69
2023/02/17 11:02:17;;;;;;;1.85;1.20;;;16.10;99.90;;;;;;5008841;28;20053;-67
2023/02/17 11:04:45;;;;;;;5.57;2.72;;;16.10;99.90;;;;;;5010931;28;20072;-67
2023/02/17 11:07:13;;;;;;;6.47;2.20;;;16.10;99.90;;;;;;5009619;28;20037;-67
2023/02/17 11:09:48;;;;;;;3.60;2.13;;;16.30;99.90;;;;;;5027157;28;20049;-67
2023/02/17 11:12:37;;;;;;;4.72;1.58;;;16.20;99.90;;;;;;5008185;28;20033;-67
2023/02/17 11:15:13;;;;;;;3.15;1.75;;;16.30;99.90;;;;;;5006148;28;20056;-67
2023/02/17 11:17:40;;;;;;;5.13;1.00;;;16.10;99.90;;;;;;5009180;28;20026;-68
2023/02/17 11:20:28;;;;;;;2.63;1.52;;;15.90;99.90;;;;;;5012644;28;20472;-68
2023/02/17 11:23:19;;;;;;;9.27;3.05;;;15.70;99.90;;;;;;5000892;28;20099;-67
2023/02/17 11:25:58;;;;;;;5.07;2.05;;;15.60;99.90;;;;;;4985002;28;20060;-66
2023/02/17 11:28:25;;;;;;;2.75;1.50;;;15.40;99.90;;;;;;5007521;28;20030;-67
2023/02/17 11:31:01;;;;;;;9.40;3.72;;;15.40;99.90;;;;;;5011025;28;20112;-67
2023/02/17 11:33:35;;;;;;;11.02;5.03;;;15.30;99.90;;;;;;5011535;28;20033;-67
2023/02/17 11:36:02;;;;;;;11.48;3.17;;;15.30;99.90;;;;;;5008864;28;20492;-66
2023/02/17 11:38:38;;;;;;;7.13;3.28;;;15.10;99.90;;;;;;5009386;28;20040;-67
2023/02/17 11:41:06;;;;;;;4.60;2.35;;;15.00;99.90;;;;;;5013526;28;20041;-67
2023/02/17 11:43:32;;;;;;;2.83;1.27;;;15.00;99.90;;;;;;5002791;28;20104;-67
2023/02/17 11:46:07;;;;;;;2.42;1.05;;;15.10;99.90;;;;;;5009218;28;20026;-66
2023/02/17 11:49:22;;;;;;;11.98;4.30;;;15.10;99.90;;;;;;5013844;28;20018;-67
2023/02/17 11:51:51;;;;;;;;;;;15.20;99.90;;;;;;5011074;28;20031;-67
2023/02/17 11:54:45;;;;;;;1.45;0.93;;;15.20;99.90;;;;;;5017563;28;19909;-67
2023/02/17 11:57:34;;;;;;;2.13;1.30;;;15.10;99.90;;;;;;5006818;28;20362;-66
2023/02/17 12:00:15;;;;;;;2.33;1.48;;;15.10;99.90;;;;;;5004379;28;20062;-67
2023/02/17 12:02:53;;;;;;;1.40;0.90;;;15.20;99.90;;;;;;5009454;28;20033;-67
2023/02/17 12:05:33;;;;;;;3.80;0.95;;;15.20;99.90;;;;;;4999994;28;20033;-68
2023/02/17 12:08:34;;;;;;;1.85;1.65;;;15.30;99.90;;;;;;5015183;28;20045;-67
2023/02/17 12:11:13;;;;;;;2.92;0.98;;;15.30;99.90;;;;;;4993820;28;20049;-67
2023/02/17 12:14:04;;;;;;;2.60;1.42;;;15.40;99.90;;;;;;5020102;28;20052;-67
2023/02/17 12:16:54;;;;;;;2.45;1.15;;;15.40;99.90;;;;;;4997071;28;20378;-67
2023/02/17 12:19:44;;;;;;;3.95;1.05;;;15.40;99.90;;;;;;5012961;28;20064;-67
2023/02/17 12:22:20;;;;;;;2.00;1.20;;;15.60;99.90;;;;;;5004775;28;20034;-67
2023/02/17 12:25:17;;;;;;;0.93;0.80;;;15.60;99.90;;;;;;5011666;28;20067;-67
2023/02/17 12:28:02;;;;;;;2.13;0.90;;;15.60;99.90;;;;;;5002107;28;20441;-67
2023/02/17 12:30:58;;;;;;;2.25;1.00;;;15.40;99.90;;;;;;5005885;28;20461;-67
2023/02/17 12:34:00;;;;;;;1.48;1.25;;;15.30;99.90;;;;;;5001107;28;20026;-68
2023/02/17 12:36:39;;;;;;;1.98;1.40;;;15.20;99.90;;;;;;5011616;28;20026;-67
2023/02/17 12:39:38;;;;;;;3.20;1.55;;;15.20;99.90;;;;;;5008263;28;20025;-67
2023/02/17 12:42:34;;;;;;;1.67;1.45;;;15.30;99.90;;;;;;5020498;28;20488;-67
2023/02/17 12:45:17;;;;;;;2.97;1.80;;;15.40;99.90;;;;;;4995895;28;20058;-67
2023/02/17 12:48:08;;;;;;;3.25;1.80;;;15.30;99.90;;;;;;5018906;28;20029;-66
2023/02/17 12:51:18;;;;;;;4.18;1.75;;;15.30;99.90;;;;;;5006644;28;20021;-67
2023/02/17 12:53:47;;;;;;;6.38;1.60;;;15.40;99.90;;;;;;4996762;28;20496;-67
2023/02/17 12:56:55;;;;;;;2.42;1.40;;;15.50;99.90;;;;;;4996818;28;20026;-67
2023/02/17 12:59:30;;;;;;;2.53;1.13;;;15.50;99.90;;;;;;4998995;28;20779;-67
2023/02/17 13:02:04;;;;;;;1.77;1.20;;;15.40;99.90;;;;;;5006886;28;20579;-67
2023/02/17 13:04:32;;;;;;;3.20;1.83;;;15.50;99.90;;;;;;5025200;28;20087;-67
2023/02/17 13:07:18;;;;;;;3.95;1.60;;;15.60;99.90;;;;;;5009941;28;20029;-67
2023/02/17 13:09:46;;;;;;;3.13;2.05;;;15.80;99.90;;;;;;5019001;28;20040;-67
2023/02/17 13:12:35;;;;;;;2.20;1.30;;;15.90;99.90;;;;;;5018394;28;20040;-67
2023/02/17 13:15:05;;;;;;;2.10;1.00;;;15.90;99.90;;;;;;5002437;28;20049;-67
2023/02/17 13:17:32;;;;;;;2.45;1.80;;;16.00;99.90;;;;;;5005977;28;20022;-67